Time;durP1;ratioP1;P1;durP2;ratioP2;P2;SDS_P1;SDS_P2;PMS_P1;PMS_P2;Temp;Humidity;BMP_temperature;BMP_pressure;BME280_temperature;BME280_humidity;BME280_pressure;Samples;Min_cycle;Max_cycle;Signal;HPM_P1;HPM_P2
2023/03/15 00:20:03;;;;;;;20.40;6.30;;;4.50;99.90;;;;;;5108237;28;20206;-86
2023/03/15 00:23:00;;;;;;;9.90;5.03;;;4.60;99.90;;;;;;4993389;28;20222;-84
2023/03/15 00:29:26;;;;;;;10.90;5.10;;;4.60;99.90;;;;;;5080489;28;20245;-83
2023/03/15 00:36:16;;;;;;;16.48;6.15;;;4.60;99.90;;;;;;5002759;28;20187;-84
2023/03/15 00:39:24;;;;;;;17.13;5.95;;;4.60;99.90;;;;;;5080480;28;20188;-85
2023/03/15 00:49:41;;;;;;;12.57;7.20;;;4.60;1.00;;;;;;5096992;28;20184;-84
2023/03/15 00:53:01;;;;;;;;;;;;;;;;;;;;;
2023/03/15 00:55:47;;;;;;;15.40;7.10;;;4.60;26.20;;;;;;5091110;28;20255;-83
2023/03/15 00:59:09;;;;;;;10.23;5.93;;;4.70;52.70;;;;;;5091290;28;20184;-83
2023/03/15 01:01:51;;;;;;;11.57;6.15;;;4.70;99.90;;;;;;5103940;28;20600;-85
2023/03/15 01:04:45;;;;;;;13.40;6.47;;;4.70;99.90;;;;;;5088346;28;20199;-84
2023/03/15 01:07:57;;;;;;;11.13;6.38;;;4.60;99.90;;;;;;5098376;28;20248;-84
2023/03/15 01:11:01;;;;;;;13.65;7.82;;;4.60;99.90;;;;;;5102843;28;20208;-86
2023/03/15 01:13:40;;;;;;;15.95;7.15;;;4.50;1.00;;;;;;5088167;28;20253;-85
2023/03/15 01:19:26;;;;;;;12.80;6.38;;;4.40;1.00;;;;;;5073707;28;20185;-86
2023/03/15 01:22:23;;;;;;;;;;;;;;;;;;;;;
2023/03/15 01:29:04;;;;;;;11.70;6.65;;;4.30;99.90;;;;;;5062894;28;20542;-83
2023/03/15 01:32:10;;;;;;;;;;;;;;;;;;;;;
2023/03/15 01:41:29;;;;;;;;;;;;;;;;;;;;;
2023/03/15 01:47:38;;;;;;;14.13;7.00;;;3.90;99.90;;;;;;5053469;28;20193;-86
2023/03/15 02:00:41;;;;;;;7.57;5.82;;;3.80;99.90;;;;;;5076277;28;20188;-84
2023/03/15 02:03:20;;;;;;;6.80;5.57;;;3.80;99.90;;;;;;5072610;28;20193;-85
2023/03/15 02:06:45;;;;;;;;;;;;;;;;;;;;;
2023/03/15 02:10:06;;;;;;;7.65;5.70;;;3.70;99.90;;;;;;5041099;28;20255;-85
2023/03/15 02:12:54;;;;;;;7.28;6.35;;;3.60;99.90;;;;;;5062497;28;20188;-84
2023/03/15 02:15:47;;;;;;;10.02;5.80;;;3.50;99.90;;;;;;5082300;28;20196;-83
2023/03/15 02:18:35;;;;;;;6.88;6.18;;;3.50;99.90;;;;;;5098324;28;20258;-84
2023/03/15 02:21:55;;;;;;;;;;;;;;;;;;;;;
2023/03/15 02:25:00;;;;;;;11.32;6.85;;;3.50;99.90;;;;;;5086909;28;20201;-84
2023/03/15 02:28:02;;;;;;;;;;;;;;;;;;;;;
2023/03/15 02:30:52;;;;;;;7.60;5.97;;;3.40;99.90;;;;;;5070885;28;20231;-85
2023/03/15 02:33:51;;;;;;;10.43;7.03;;;3.40;99.90;;;;;;5085531;28;20204;-84
2023/03/15 02:36:27;;;;;;;9.85;6.20;;;3.40;99.90;;;;;;5083583;28;20172;-84
2023/03/15 02:42:51;;;;;;;;;;;;;;;;;;;;;
2023/03/15 02:49:23;;;;;;;9.82;7.72;;;3.30;99.90;;;;;;5073514;28;20188;-84
2023/03/15 02:55:39;;;;;;;9.05;6.85;;;3.20;99.90;;;;;;5003621;28;20195;-84
2023/03/15 02:58:40;;;;;;;9.93;7.35;;;3.20;99.90;;;;;;5078155;28;20205;-85
2023/03/15 03:01:45;;;;;;;10.63;7.75;;;3.20;99.90;;;;;;5079048;28;20212;-84
2023/03/15 03:05:22;;;;;;;;;;;;;;;;;;;;;
2023/03/15 03:08:15;;;;;;;10.77;7.35;;;3.20;99.90;;;;;;5074351;28;20180;-85
2023/03/15 03:11:26;;;;;;;11.88;8.07;;;3.20;99.90;;;;;;5052697;28;20201;-84
2023/03/15 03:14:05;;;;;;;9.85;7.30;;;3.30;99.90;;;;;;5052208;28;20275;-85
2023/03/15 03:20:17;;;;;;;6.15;5.00;;;3.30;99.90;;;;;;5082059;28;20189;-84
2023/03/15 03:23:38;;;;;;;6.57;5.90;;;3.30;99.90;;;;;;5076297;28;20177;-84
2023/03/15 03:26:54;;;;;;;;;;;;;;;;;;;;;
2023/03/15 03:35:28;;;;;;;7.25;5.32;;;3.60;99.90;;;;;;5076008;28;20184;-83
2023/03/15 03:38:30;;;;;;;5.80;4.55;;;3.60;99.90;;;;;;5075760;28;20181;-84
2023/03/15 03:41:36;;;;;;;5.38;4.70;;;3.60;99.90;;;;;;5063946;28;20216;-84
2023/03/15 03:44:21;;;;;;;;;;;;;;;;;;;;;
2023/03/15 03:46:58;;;;;;;5.70;4.68;;;3.70;99.90;;;;;;5080979;28;20208;-85
2023/03/15 03:50:01;;;;;;;5.10;4.70;;;3.70;99.90;;;;;;5077297;28;20188;-85
2023/03/15 03:52:43;;;;;;;7.72;5.97;;;3.70;99.90;;;;;;5071936;28;20635;-86
2023/03/15 03:55:34;;;;;;;7.40;5.00;;;3.60;99.90;;;;;;5086211;28;20192;-86
2023/03/15 03:58:12;;;;;;;6.93;4.90;;;3.60;99.90;;;;;;5083044;28;20715;-85
2023/03/15 04:00:43;;;;;;;7.32;6.00;;;3.50;99.90;;;;;;5076464;28;20193;-86
2023/03/15 04:03:33;;;;;;;8.15;6.20;;;3.40;99.90;;;;;;5082861;28;20181;-84
2023/03/15 04:06:04;;;;;;;8.82;7.47;;;3.40;99.90;;;;;;5079182;28;20212;-86
2023/03/15 04:08:37;;;;;;;8.63;7.40;;;3.30;99.90;;;;;;5086253;28;20188;-86
2023/03/15 04:11:16;;;;;;;;;;;;;;;;;;;;;
2023/03/15 04:14:11;;;;;;;13.93;9.23;;;3.20;99.90;;;;;;5083828;28;20260;-85
2023/03/15 04:16:33;;;;;;;10.20;7.72;;;3.20;99.90;;;;;;5081425;28;20659;-85
2023/03/15 04:19:01;;;;;;;12.90;9.25;;;3.10;99.90;;;;;;5080191;28;20177;-87
2023/03/15 04:21:46;;;;;;;13.45;7.75;;;3.10;99.90;;;;;;5077803;28;20255;-85
2023/03/15 04:24:14;;;;;;;9.23;7.40;;;3.10;1.00;;;;;;5083448;28;20191;-85
2023/03/15 04:26:42;;;;;;;11.02;8.07;;;3.10;1.00;;;;;;5081224;28;20188;-86
2023/03/15 04:29:10;;;;;;;12.63;8.20;;;3.10;1.00;;;;;;5084946;28;20189;-85
2023/03/15 04:31:38;;;;;;;12.63;9.70;;;3.10;1.00;;;;;;5080731;28;20229;-84
2023/03/15 04:34:17;;;;;;;13.05;9.55;;;3.10;1.00;;;;;;5074535;28;20224;-86
2023/03/15 04:36:47;;;;;;;14.00;9.82;;;3.10;1.00;;;;;;5069430;28;20672;-85
2023/03/15 04:39:15;;;;;;;13.73;9.70;;;3.10;1.00;;;;;;5073425;28;20549;-85
2023/03/15 04:41:41;;;;;;;12.55;10.07;;;3.00;1.00;;;;;;5079571;28;20200;-85
2023/03/15 04:44:09;;;;;;;14.77;10.85;;;3.00;1.00;;;;;;5088315;28;20184;-86
2023/03/15 04:46:35;;;;;;;13.82;10.90;;;2.90;1.00;;;;;;5081062;28;20184;-86
2023/03/15 04:49:03;;;;;;;13.90;10.00;;;2.80;1.00;;;;;;5089648;28;20199;-85
2023/03/15 04:51:29;;;;;;;16.75;11.50;;;2.80;1.00;;;;;;5088076;28;20189;-84
2023/03/15 04:53:55;;;;;;;14.47;11.80;;;2.80;1.00;;;;;;5088650;28;20223;-85
2023/03/15 04:56:22;;;;;;;13.27;10.27;;;2.70;1.00;;;;;;5089179;28;20188;-84
2023/03/15 04:58:50;;;;;;;13.68;10.98;;;2.70;1.00;;;;;;5085863;28;20192;-85
2023/03/15 05:01:16;;;;;;;22.35;12.32;;;2.70;1.00;;;;;;5087898;28;20197;-85
2023/03/15 05:03:44;;;;;;;16.50;12.20;;;2.60;1.00;;;;;;5077693;28;20196;-86
2023/03/15 05:06:32;;;;;;;15.75;11.95;;;2.60;1.00;;;;;;5082427;28;20185;-85
2023/03/15 05:09:05;;;;;;;15.40;10.90;;;2.60;1.00;;;;;;5084798;28;20173;-85
2023/03/15 05:11:31;;;;;;;12.65;10.48;;;2.60;1.00;;;;;;5088223;28;20197;-84
2023/03/15 05:13:59;;;;;;;14.93;12.63;;;2.60;1.00;;;;;;5089923;28;20205;-84
2023/03/15 05:16:51;;;;;;;15.13;11.90;;;2.60;1.00;;;;;;5084573;28;20173;-84
2023/03/15 05:19:20;;;;;;;20.08;13.35;;;2.50;1.00;;;;;;5081746;28;20276;-83
2023/03/15 05:21:55;;;;;;;18.55;12.75;;;2.50;1.00;;;;;;5081584;28;20201;-85
2023/03/15 05:27:37;;;;;;;20.77;14.40;;;2.50;1.00;;;;;;5075555;28;20189;-84
2023/03/15 05:33:13;;;;;;;19.35;13.93;;;2.50;1.00;;;;;;5083668;28;20197;-84
2023/03/15 05:36:04;;;;;;;24.40;14.80;;;2.50;1.00;;;;;;5089708;28;20173;-86
2023/03/15 05:38:52;;;;;;;19.98;13.20;;;2.50;1.00;;;;;;5070097;28;20223;-85
2023/03/15 05:41:33;;;;;;;22.83;14.25;;;2.50;1.00;;;;;;5080320;28;20197;-84
2023/03/15 05:44:05;;;;;;;22.20;15.00;;;2.50;1.00;;;;;;5078727;28;20182;-84
2023/03/15 05:46:33;;;;;;;21.50;15.23;;;2.50;1.00;;;;;;5085804;28;20189;-85
2023/03/15 05:49:04;;;;;;;21.55;15.05;;;2.50;1.00;;;;;;5080020;28;20181;-84
2023/03/15 05:51:48;;;;;;;23.08;15.35;;;2.60;1.00;;;;;;5081888;28;20230;-84
2023/03/15 05:54:16;;;;;;;18.75;14.20;;;2.70;1.00;;;;;;5084399;28;20208;-84
2023/03/15 05:56:55;;;;;;;20.20;14.27;;;2.80;1.00;;;;;;5087752;28;20184;-84
2023/03/15 05:59:26;;;;;;;19.80;14.18;;;2.90;1.00;;;;;;5092707;28;20180;-84
2023/03/15 06:01:57;;;;;;;16.38;13.40;;;3.00;1.00;;;;;;5093618;28;20272;-86
2023/03/15 06:04:25;;;;;;;16.75;12.68;;;3.00;1.00;;;;;;5073045;28;20189;-83
2023/03/15 06:07:01;;;;;;;19.75;14.68;;;3.10;1.00;;;;;;5076904;28;20193;-83
2023/03/15 06:09:28;;;;;;;23.52;14.40;;;3.20;1.00;;;;;;5078806;28;20196;-83
2023/03/15 06:11:54;;;;;;;19.90;13.55;;;3.20;1.00;;;;;;5073535;28;20205;-83
2023/03/15 06:14:23;;;;;;;18.47;13.90;;;3.30;1.00;;;;;;5084297;28;20223;-84
2023/03/15 06:16:51;;;;;;;21.90;13.95;;;3.40;1.00;;;;;;5074589;28;20603;-85
2023/03/15 06:19:20;;;;;;;21.48;13.50;;;3.40;1.00;;;;;;5087640;28;20188;-85
2023/03/15 06:21:46;;;;;;;20.33;13.65;;;3.50;1.00;;;;;;5087243;28;20216;-86
2023/03/15 06:24:14;;;;;;;23.77;14.20;;;3.50;1.00;;;;;;5085580;28;20193;-85
2023/03/15 06:26:40;;;;;;;21.58;13.10;;;3.60;1.00;;;;;;5085480;28;20438;-86
2023/03/15 06:29:08;;;;;;;17.40;13.00;;;3.60;1.00;;;;;;5080015;28;20184;-85
2023/03/15 06:31:36;;;;;;;19.83;14.48;;;3.70;1.00;;;;;;5086836;28;20212;-83
2023/03/15 06:34:04;;;;;;;23.35;16.27;;;3.70;1.00;;;;;;5088318;28;20208;-84
2023/03/15 06:36:48;;;;;;;25.73;15.80;;;3.80;1.00;;;;;;5084938;28;20180;-85
2023/03/15 06:39:24;;;;;;;21.27;14.68;;;3.90;1.00;;;;;;5080064;28;20246;-86
2023/03/15 06:41:56;;;;;;;21.02;13.13;;;3.90;1.00;;;;;;5078363;28;20759;-85
2023/03/15 06:44:29;;;;;;;21.95;14.98;;;3.90;1.00;;;;;;5084390;28;20194;-86
2023/03/15 06:46:59;;;;;;;21.17;13.50;;;3.90;1.00;;;;;;5081570;28;20204;-85
2023/03/15 06:49:31;;;;;;;21.52;14.35;;;3.90;1.00;;;;;;5085109;28;20188;-84
2023/03/15 06:51:59;;;;;;;19.02;13.95;;;3.90;1.00;;;;;;5080607;28;20268;-85
2023/03/15 06:54:25;;;;;;;18.02;12.88;;;3.80;1.00;;;;;;5085858;28;20212;-84
2023/03/15 06:56:52;;;;;;;22.53;14.10;;;3.80;1.00;;;;;;5083988;28;20181;-82
2023/03/15 06:59:18;;;;;;;18.33;13.80;;;3.90;1.00;;;;;;5085858;28;20552;-83
2023/03/15 07:01:43;;;;;;;15.07;11.13;;;4.10;1.00;;;;;;5088051;28;20197;-83
2023/03/15 07:04:09;;;;;;;17.97;12.50;;;4.30;1.00;;;;;;5087551;28;20196;-82
2023/03/15 07:06:34;;;;;;;13.93;11.50;;;4.90;1.00;;;;;;5085801;28;20200;-82
2023/03/15 07:09:01;;;;;;;14.83;11.07;;;5.20;99.90;;;;;;5087349;28;20409;-81
2023/03/15 07:11:26;;;;;;;15.05;11.85;;;5.60;99.90;;;;;;5087450;28;20209;-82
2023/03/15 07:13:52;;;;;;;15.43;11.20;;;5.70;1.00;;;;;;5087932;28;20455;-83
2023/03/15 07:16:17;;;;;;;12.13;10.20;;;5.70;1.00;;;;;;5081096;28;20226;-82
2023/03/15 07:18:43;;;;;;;15.17;11.20;;;5.90;99.90;;;;;;5088914;28;20195;-83
2023/03/15 07:21:09;;;;;;;11.53;9.83;;;5.90;1.00;;;;;;5086688;28;20205;-82
2023/03/15 07:23:34;;;;;;;17.30;11.47;;;5.90;1.00;;;;;;5086653;28;20826;-82
2023/03/15 07:26:00;;;;;;;13.50;11.60;;;5.80;1.00;;;;;;5086885;28;20189;-82
2023/03/15 07:28:26;;;;;;;18.10;11.33;;;5.70;1.00;;;;;;5085088;28;20200;-83
2023/03/15 07:30:57;;;;;;;13.32;11.20;;;5.70;1.00;;;;;;5083047;28;20207;-83
2023/03/15 07:33:24;;;;;;;16.02;11.27;;;5.60;99.90;;;;;;5086674;28;20201;-82
2023/03/15 07:35:52;;;;;;;17.60;11.93;;;5.60;1.00;;;;;;5082905;28;20203;-82
2023/03/15 07:38:24;;;;;;;16.10;11.40;;;5.50;1.00;;;;;;5085725;28;20169;-82
2023/03/15 07:40:49;;;;;;;16.88;12.65;;;5.50;1.00;;;;;;5083203;28;20232;-81
2023/03/15 07:43:18;;;;;;;15.97;12.30;;;5.40;1.00;;;;;;5085394;28;20572;-79
2023/03/15 07:45:43;;;;;;;15.45;11.35;;;5.50;1.00;;;;;;5080008;28;20181;-82
2023/03/15 07:48:09;;;;;;;13.27;10.77;;;5.70;1.00;;;;;;5084661;28;20222;-82
2023/03/15 07:50:36;;;;;;;14.20;11.30;;;6.10;1.00;;;;;;5081542;28;20200;-83
2023/03/15 07:53:02;;;;;;;13.70;10.70;;;6.80;99.90;;;;;;5081226;28;20204;-82
2023/03/15 07:55:28;;;;;;;17.40;11.38;;;7.00;1.00;;;;;;5077588;28;20502;-84
2023/03/15 07:57:54;;;;;;;16.50;11.27;;;7.50;99.90;;;;;;5086283;28;20181;-84
2023/03/15 08:00:20;;;;;;;13.27;10.50;;;8.60;1.00;;;;;;5076475;28;20193;-82
2023/03/15 08:02:46;;;;;;;13.63;9.73;;;9.00;1.00;;;;;;5081789;28;20205;-82
2023/03/15 08:05:11;;;;;;;16.67;11.33;;;8.70;1.00;;;;;;5083952;28;20423;-82
2023/03/15 08:07:37;;;;;;;17.47;11.70;;;8.40;99.90;;;;;;5084647;28;20188;-82
2023/03/15 08:10:06;;;;;;;14.47;10.83;;;8.10;99.90;;;;;;5084864;28;20662;-83
2023/03/15 08:12:32;;;;;;;11.85;10.05;;;7.80;1.00;;;;;;5084864;28;20216;-81
2023/03/15 08:14:57;;;;;;;14.30;11.10;;;7.50;1.00;;;;;;5080022;28;20223;-83
2023/03/15 08:17:23;;;;;;;13.90;10.57;;;7.30;1.00;;;;;;5076503;28;20492;-82
2023/03/15 08:19:49;;;;;;;20.53;12.10;;;7.20;1.00;;;;;;5075473;28;20207;-82
2023/03/15 08:22:15;;;;;;;16.60;11.47;;;7.20;95.60;;;;;;5083713;28;20197;-84
2023/03/15 08:24:40;;;;;;;15.07;10.50;;;7.10;99.90;;;;;;5082094;28;20207;-81
2023/03/15 08:27:06;;;;;;;15.80;11.90;;;7.00;99.90;;;;;;5085685;28;20237;-81
2023/03/15 08:29:32;;;;;;;16.07;11.63;;;6.90;99.90;;;;;;5083970;28;20225;-81
2023/03/15 08:32:00;;;;;;;15.87;11.80;;;6.80;99.90;;;;;;5077356;28;20209;-81
2023/03/15 08:34:25;;;;;;;17.02;12.95;;;6.90;1.00;;;;;;5083644;28;20239;-81
2023/03/15 08:36:51;;;;;;;16.13;11.63;;;6.90;1.00;;;;;;5074863;28;20185;-81
2023/03/15 08:39:16;;;;;;;18.03;11.20;;;7.10;1.00;;;;;;5076926;28;20646;-80
2023/03/15 08:41:42;;;;;;;13.93;9.87;;;7.10;1.00;;;;;;5075068;28;20257;-81
2023/03/15 08:44:08;;;;;;;15.77;10.67;;;7.20;99.90;;;;;;5071638;28;20794;-80
2023/03/15 08:46:36;;;;;;;15.32;10.75;;;7.60;99.90;;;;;;5067875;28;20268;-81
2023/03/15 08:49:02;;;;;;;12.90;9.30;;;8.00;17.00;;;;;;5075451;28;20182;-80
2023/03/15 08:51:29;;;;;;;13.97;10.30;;;8.30;1.00;;;;;;5075900;28;20466;-80
2023/03/15 08:53:55;;;;;;;16.20;10.03;;;8.60;99.90;;;;;;5069051;28;20249;-81
2023/03/15 08:56:21;;;;;;;15.73;10.20;;;8.80;99.90;;;;;;5067483;28;20535;-79
2023/03/15 08:58:47;;;;;;;15.83;10.50;;;8.70;99.90;;;;;;5071198;28;20180;-81
2023/03/15 09:01:16;;;;;;;17.30;11.37;;;8.70;99.90;;;;;;5072200;28;20349;-80
2023/03/15 09:03:42;;;;;;;17.03;10.80;;;8.80;99.90;;;;;;5072298;28;20441;-81
2023/03/15 09:06:08;;;;;;;14.80;10.53;;;9.50;42.60;;;;;;5080548;28;20435;-80
2023/03/15 09:08:34;;;;;;;15.03;10.33;;;12.40;1.00;;;;;;5080383;28;20195;-81
2023/03/15 09:11:00;;;;;;;12.37;7.83;;;13.50;1.00;;;;;;5078448;28;20466;-80
2023/03/15 09:13:28;;;;;;;13.83;8.80;;;14.30;99.90;;;;;;5084121;28;20239;-82
2023/03/15 09:15:55;;;;;;;13.10;9.80;;;14.80;99.90;;;;;;5076426;28;20459;-82
2023/03/15 09:18:22;;;;;;;11.90;9.50;;;16.00;99.90;;;;;;5084014;28;20986;-82
2023/03/15 09:20:48;;;;;;;12.50;9.23;;;18.10;99.90;;;;;;5084018;28;20452;-82
2023/03/15 09:23:14;;;;;;;10.90;9.63;;;18.50;99.90;;;;;;5079956;28;20469;-81
2023/03/15 09:25:40;;;;;;;13.07;10.17;;;19.10;99.90;;;;;;5081668;28;20189;-82
2023/03/15 09:28:08;;;;;;;11.47;9.50;;;19.00;99.90;;;;;;5078254;28;20442;-80
2023/03/15 09:30:35;;;;;;;13.60;10.10;;;18.50;99.90;;;;;;5080614;28;20465;-82
2023/03/15 09:33:01;;;;;;;12.53;8.13;;;19.40;99.90;;;;;;5083276;28;20462;-82
2023/03/15 09:35:27;;;;;;;9.67;8.70;;;22.10;99.90;;;;;;5076535;28;20780;-82
2023/03/15 09:37:52;;;;;;;10.53;8.20;;;24.10;99.90;;;;;;5076897;28;20189;-83
2023/03/15 09:40:29;;;;;;;11.73;9.00;;;23.60;99.90;;;;;;5070480;28;20254;-82
2023/03/15 09:43:06;;;;;;;11.67;8.63;;;22.90;99.90;;;;;;5080551;28;20198;-82
2023/03/15 09:46:04;;;;;;;12.20;8.77;;;21.60;99.90;;;;;;5075358;28;20485;-80
2023/03/15 09:48:46;;;;;;;12.70;8.40;;;21.30;99.90;;;;;;5071592;28;20846;-77
2023/03/15 09:51:35;;;;;;;8.53;7.63;;;22.80;99.90;;;;;;5067051;28;21022;-80
2023/03/15 09:54:04;;;;;;;9.33;7.07;;;;;;;;;;5071547;28;20569;-80
2023/03/15 09:56:47;;;;;;;8.23;6.87;;;26.10;99.90;;;;;;5071940;28;20432;-81
2023/03/15 09:59:16;;;;;;;12.83;7.50;;;27.50;99.90;;;;;;5077087;28;20458;-81
2023/03/15 10:01:45;;;;;;;8.33;7.23;;;28.50;99.90;;;;;;5077669;28;20523;-82
2023/03/15 10:04:39;;;;;;;13.60;7.87;;;29.30;99.90;;;;;;5078238;28;20438;-81
2023/03/15 10:07:10;;;;;;;7.80;7.00;;;29.60;99.90;;;;;;5077290;28;20452;-81
2023/03/15 10:09:36;;;;;;;10.03;6.83;;;29.20;99.90;;;;;;5077573;28;20438;-80
2023/03/15 10:12:10;;;;;;;7.40;6.70;;;26.90;99.90;;;;;;5072507;28;20459;-80
2023/03/15 10:15:26;;;;;;;7.33;6.37;;;24.70;99.90;;;;;;5075407;28;20188;-79
2023/03/15 10:17:58;;;;;;;8.73;6.93;;;22.70;99.90;;;;;;5029033;28;20431;-79
2023/03/15 10:20:40;;;;;;;8.30;6.90;;;22.60;99.90;;;;;;5075584;28;20837;-80
2023/03/15 10:23:16;;;;;;;10.07;7.27;;;23.80;99.90;;;;;;5078616;28;20467;-80
2023/03/15 10:25:44;;;;;;;10.23;7.10;;;25.00;99.90;;;;;;5078154;28;20419;-81
2023/03/15 10:28:15;;;;;;;8.17;5.63;;;26.10;99.90;;;;;;5090684;28;20526;-80
2023/03/15 10:30:47;;;;;;;9.57;5.60;;;26.90;99.90;;;;;;5074624;28;20888;-80
2023/03/15 10:33:32;;;;;;;7.30;5.57;;;27.80;99.90;;;;;;5078649;28;20449;-81
2023/03/15 10:36:01;;;;;;;7.80;5.17;;;28.60;99.90;;;;;;5078425;28;20452;-83
2023/03/15 10:38:27;;;;;;;7.40;5.20;;;29.00;99.90;;;;;;5099946;28;20568;-82
2023/03/15 10:40:58;;;;;;;9.33;4.87;;;29.60;99.90;;;;;;5084295;28;20443;-84
2023/03/15 10:43:34;;;;;;;4.23;3.83;;;29.80;99.90;;;;;;5081332;28;20970;-82
2023/03/15 10:46:08;;;;;;;8.03;4.70;;;30.00;99.90;;;;;;5083022;28;20446;-80
2023/03/15 10:48:40;;;;;;;6.00;4.10;;;30.20;99.90;;;;;;5085820;28;20927;-82
2023/03/15 10:51:30;;;;;;;5.93;4.10;;;30.00;99.90;;;;;;5084677;28;21039;-83
2023/03/15 10:54:06;;;;;;;5.37;4.23;;;30.20;99.90;;;;;;5079675;28;20959;-82
2023/03/15 10:56:54;;;;;;;7.83;4.43;;;30.10;99.90;;;;;;5085152;28;20443;-82
2023/03/15 10:59:25;;;;;;;6.67;4.03;;;30.00;99.90;;;;;;5079723;28;20434;-82
2023/03/15 11:01:53;;;;;;;6.87;4.30;;;30.10;99.90;;;;;;5086631;28;20833;-81
2023/03/15 11:04:22;;;;;;;6.27;4.50;;;29.90;99.90;;;;;;5082263;28;20467;-80
2023/03/15 11:06:56;;;;;;;6.47;4.40;;;28.60;99.90;;;;;;5083105;28;20444;-81
2023/03/15 11:09:25;;;;;;;5.37;3.70;;;28.30;99.90;;;;;;5085831;28;20489;-82
2023/03/15 11:12:03;;;;;;;4.87;2.57;;;29.00;99.90;;;;;;5075686;28;20541;-81
2023/03/15 11:14:34;;;;;;;7.27;3.00;;;29.20;99.90;;;;;;5083459;28;20952;-80
2023/03/15 11:17:00;;;;;;;7.13;3.10;;;27.70;99.90;;;;;;5078706;28;20526;-81
2023/03/15 11:19:30;;;;;;;5.97;3.43;;;26.80;99.90;;;;;;5078065;28;20447;-78
2023/03/15 11:21:58;;;;;;;5.43;3.67;;;26.80;99.90;;;;;;5078712;28;20466;-80
2023/03/15 11:24:28;;;;;;;6.20;2.90;;;27.00;99.90;;;;;;5081747;28;20483;-81
2023/03/15 11:26:57;;;;;;;5.17;2.77;;;27.50;99.90;;;;;;5083005;28;20462;-81
2023/03/15 11:29:31;;;;;;;5.63;2.93;;;28.10;99.90;;;;;;5079667;28;20443;-81
2023/03/15 11:32:01;;;;;;;4.63;2.90;;;28.40;99.90;;;;;;5075866;28;20473;-80
2023/03/15 11:34:45;;;;;;;7.43;3.20;;;27.70;99.90;;;;;;5074399;28;20447;-80
2023/03/15 11:37:21;;;;;;;4.87;2.47;;;27.80;99.90;;;;;;5066631;28;20449;-79
2023/03/15 11:40:01;;;;;;;7.40;2.40;;;28.40;99.90;;;;;;5075647;28;20454;-80
2023/03/15 11:42:37;;;;;;;5.10;2.60;;;28.90;99.90;;;;;;5072782;28;20503;-80
2023/03/15 11:45:16;;;;;;;9.30;2.50;;;27.80;99.90;;;;;;5070835;28;20702;-80
2023/03/15 11:47:50;;;;;;;4.33;2.60;;;28.40;99.90;;;;;;5073339;28;20864;-80
2023/03/15 11:50:16;;;;;;;2.67;1.83;;;29.10;99.90;;;;;;5075114;28;20431;-81
2023/03/15 11:52:46;;;;;;;4.53;2.10;;;29.70;99.90;;;;;;5077843;28;20423;-80
2023/03/15 11:55:26;;;;;;;4.17;1.90;;;28.90;99.90;;;;;;5076717;28;20604;-81
2023/03/15 11:57:52;;;;;;;6.83;2.33;;;28.10;99.90;;;;;;5070921;28;20432;-81
2023/03/15 12:00:49;;;;;;;6.50;2.10;;;28.30;99.90;;;;;;5072492;28;20427;-84
2023/03/15 12:03:36;;;;;;;3.10;1.80;;;28.10;99.90;;;;;;5074735;28;20481;-81
2023/03/15 12:06:10;;;;;;;4.30;1.90;;;28.00;99.90;;;;;;5078045;28;20438;-81
2023/03/15 12:08:49;;;;;;;5.23;1.70;;;27.10;99.90;;;;;;5084075;28;20430;-80
2023/03/15 12:11:20;;;;;;;3.10;1.50;;;27.40;99.90;;;;;;5076433;28;20454;-82
2023/03/15 12:13:58;;;;;;;3.80;1.70;;;27.40;99.90;;;;;;5074545;28;20431;-82
2023/03/15 12:16:29;;;;;;;3.37;1.90;;;27.90;99.90;;;;;;5080524;28;20431;-81
2023/03/15 12:19:01;;;;;;;4.90;2.50;;;28.40;99.90;;;;;;5083182;28;20467;-80
2023/03/15 12:21:32;;;;;;;5.63;1.90;;;28.80;99.90;;;;;;5082007;28;20450;-81
2023/03/15 12:24:04;;;;;;;2.07;1.70;;;28.80;99.90;;;;;;5079064;28;21118;-81
2023/03/15 12:26:44;;;;;;;3.00;1.60;;;28.90;99.90;;;;;;5081241;28;20435;-81
2023/03/15 12:29:25;;;;;;;2.60;1.50;;;28.70;99.90;;;;;;5075346;28;20446;-82
2023/03/15 12:31:57;;;;;;;7.97;1.60;;;28.90;99.90;;;;;;5079626;28;20435;-81
2023/03/15 12:34:32;;;;;;;3.20;1.50;;;28.40;99.90;;;;;;5082098;28;20476;-81
2023/03/15 12:37:11;;;;;;;3.20;1.20;;;28.60;99.90;;;;;;5084527;28;20456;-81
2023/03/15 12:39:47;;;;;;;3.27;1.30;;;28.90;99.90;;;;;;5085792;28;20411;-83
2023/03/15 12:42:31;;;;;;;4.57;1.80;;;29.30;99.90;;;;;;5082032;28;20508;-81
2023/03/15 12:45:14;;;;;;;2.90;1.33;;;29.60;99.90;;;;;;5080593;28;20459;-81
2023/03/15 12:47:49;;;;;;;6.13;1.40;;;29.30;99.90;;;;;;5070047;28;20820;-80
2023/03/15 12:50:43;;;;;;;3.77;1.37;;;28.20;99.90;;;;;;5075456;28;20431;-81
2023/03/15 12:53:29;;;;;;;4.57;1.40;;;26.40;99.90;;;;;;5083644;28;20435;-81
2023/03/15 12:55:57;;;;;;;4.90;1.97;;;24.50;97.10;;;;;;5066216;28;20514;-80
2023/03/15 12:58:33;;;;;;;3.37;1.40;;;24.20;99.90;;;;;;5079169;28;20430;-79
2023/03/15 13:01:03;;;;;;;4.90;1.40;;;24.50;99.90;;;;;;5075472;28;20442;-80
2023/03/15 13:03:28;;;;;;;3.97;1.53;;;24.80;99.90;;;;;;5080207;28;20481;-81
2023/03/15 13:06:42;;;;;;;4.00;1.63;;;25.20;99.90;;;;;;5073662;28;20435;-80
2023/03/15 13:09:32;;;;;;;2.83;1.40;;;25.50;99.90;;;;;;5037748;28;20205;-79
2023/03/15 13:12:14;;;;;;;4.03;1.40;;;25.70;99.90;;;;;;5071769;28;20520;-81
2023/03/15 13:14:58;;;;;;;8.33;4.67;;;25.80;99.90;;;;;;5081348;28;20492;-79
2023/03/15 13:17:30;;;;;;;4.50;1.53;;;25.90;99.90;;;;;;5073659;28;20430;-80
2023/03/15 13:20:20;;;;;;;3.63;1.70;;;25.60;99.90;;;;;;5072285;28;20504;-81
2023/03/15 13:23:01;;;;;;;2.80;1.10;;;25.30;99.90;;;;;;5071629;28;20924;-80
2023/03/15 13:25:51;;;;;;;2.67;1.30;;;25.30;99.90;;;;;;5073532;28;20449;-79
2023/03/15 13:28:26;;;;;;;4.13;1.30;;;25.20;99.90;;;;;;5076555;28;20500;-81
2023/03/15 13:30:54;;;;;;;3.27;1.60;;;24.90;99.90;;;;;;5070015;28;20527;-79
2023/03/15 13:33:30;;;;;;;2.80;1.60;;;24.40;99.90;;;;;;5075252;28;20431;-80
2023/03/15 13:36:03;;;;;;;4.23;1.43;;;23.90;99.90;;;;;;5072888;28;20438;-79
2023/03/15 13:38:34;;;;;;;5.30;1.67;;;23.70;99.90;;;;;;5072896;28;20443;-79
2023/03/15 13:41:02;;;;;;;4.23;1.30;;;23.60;99.90;;;;;;5076978;28;20486;-81
2023/03/15 13:43:38;;;;;;;6.00;1.73;;;23.50;99.90;;;;;;5084066;28;20470;-80
2023/03/15 13:46:04;;;;;;;1.63;1.00;;;23.20;99.90;;;;;;5078937;28;20443;-81
2023/03/15 13:48:32;;;;;;;3.57;1.40;;;22.40;98.50;;;;;;5077780;28;20515;-80
2023/03/15 13:51:17;;;;;;;4.03;1.27;;;21.90;97.50;;;;;;5078291;28;20483;-81
2023/03/15 13:53:44;;;;;;;6.07;1.50;;;21.70;97.60;;;;;;5071725;28;20457;-80
2023/03/15 13:56:16;;;;;;;3.30;1.60;;;21.70;97.70;;;;;;5079919;28;20762;-79
2023/03/15 13:58:42;;;;;;;2.70;1.23;;;21.70;98.50;;;;;;5069702;28;20455;-77
2023/03/15 14:01:10;;;;;;;2.07;1.00;;;21.60;98.10;;;;;;5076437;28;20457;-80
2023/03/15 14:03:40;;;;;;;1.83;1.10;;;21.40;97.50;;;;;;5064233;28;20495;-81
2023/03/15 14:06:05;;;;;;;6.27;1.73;;;21.00;96.40;;;;;;5079348;28;20509;-80
2023/03/15 14:08:36;;;;;;;5.33;2.03;;;20.80;96.40;;;;;;5073971;28;20443;-80
2023/03/15 14:11:04;;;;;;;3.43;1.50;;;20.30;94.60;;;;;;5091111;28;20218;-80
2023/03/15 14:13:48;;;;;;;4.37;1.47;;;19.90;93.90;;;;;;5078154;28;20524;-79
2023/03/15 14:16:28;;;;;;;3.53;1.57;;;19.90;94.70;;;;;;5077762;28;20443;-80
2023/03/15 14:18:53;;;;;;;4.60;1.30;;;20.10;95.20;;;;;;5075919;28;20438;-81
2023/03/15 14:21:30;;;;;;;9.73;4.40;;;20.10;95.50;;;;;;5074871;28;20463;-79
2023/03/15 14:23:55;;;;;;;5.33;1.47;;;20.20;95.60;;;;;;5077173;28;20191;-81
2023/03/15 14:26:28;;;;;;;3.70;1.50;;;19.90;95.30;;;;;;5074977;28;20504;-80
2023/03/15 14:28:58;;;;;;;4.77;1.47;;;19.80;95.50;;;;;;5075936;28;20182;-81
2023/03/15 14:31:26;;;;;;;4.33;1.53;;;19.70;95.10;;;;;;5075324;28;20451;-80
2023/03/15 14:34:04;;;;;;;3.70;1.60;;;19.40;93.90;;;;;;5075460;28;20531;-79
2023/03/15 14:36:50;;;;;;;3.00;1.80;;;19.00;93.10;;;;;;5073487;28;20472;-82
2023/03/15 14:39:31;;;;;;;5.20;1.80;;;18.50;91.70;;;;;;5074815;28;20463;-80
2023/03/15 14:41:56;;;;;;;4.00;1.80;;;18.30;91.50;;;;;;5078982;28;20455;-81
2023/03/15 14:44:22;;;;;;;3.70;1.77;;;18.10;90.80;;;;;;5082108;28;20466;-80
2023/03/15 14:46:48;;;;;;;5.90;1.40;;;17.80;90.50;;;;;;5078722;28;20182;-81
2023/03/15 14:49:21;;;;;;;4.23;2.00;;;17.60;90.50;;;;;;5073520;28;20214;-80
2023/03/15 14:51:52;;;;;;;4.33;1.57;;;17.50;89.60;;;;;;5077193;28;20999;-82
2023/03/15 14:54:18;;;;;;;2.10;1.43;;;17.40;90.60;;;;;;5076537;28;20459;-81
2023/03/15 14:56:43;;;;;;;2.37;1.20;;;17.40;90.50;;;;;;5071718;28;20418;-81
2023/03/15 14:59:11;;;;;;;2.33;1.57;;;17.50;91.10;;;;;;5078271;28;20247;-80
2023/03/15 15:01:39;;;;;;;4.37;1.33;;;17.70;91.70;;;;;;5077976;28;20272;-80
2023/03/15 15:04:05;;;;;;;4.30;1.97;;;17.80;93.60;;;;;;5080187;28;20473;-81
2023/03/15 15:06:31;;;;;;;5.30;2.20;;;17.70;92.40;;;;;;5078081;28;21069;-79
2023/03/15 15:08:58;;;;;;;3.93;2.10;;;17.60;92.20;;;;;;5073259;28;20432;-80
2023/03/15 15:11:25;;;;;;;3.37;1.70;;;17.50;91.40;;;;;;5078092;28;20203;-81
2023/03/15 15:13:50;;;;;;;3.07;1.57;;;17.60;92.20;;;;;;5076482;28;21061;-82